createdAt,value
2022-09-01T00:00:50.446Z,93598.63
2022-09-01T00:01:50.745Z,93608.22
2022-09-01T00:02:47.961Z,93605.22
2022-09-01T00:03:48.724Z,93603.69
2022-09-01T00:04:46.470Z,93604.81
2022-09-01T00:05:46.326Z,93594.69
2022-09-01T00:06:43.865Z,93602.03
2022-09-01T00:07:40.578Z,93596.63
2022-09-01T00:08:37.260Z,93598.59
2022-09-01T00:09:34.544Z,93596.28
2022-09-01T00:10:31.464Z,93590.53
2022-09-01T00:11:29.444Z,93590.97
2022-09-01T00:12:26.602Z,93587.97
2022-09-01T00:13:23.248Z,93588.72
2022-09-01T00:14:29.914Z,93588.38
2022-09-01T00:15:27.720Z,93583.38
2022-09-01T00:16:24.887Z,93587.22
2022-09-01T00:17:22.283Z,93586.41
2022-09-01T00:18:19.818Z,93589.88
2022-09-01T00:19:16.815Z,93583.41
2022-09-01T00:20:18.223Z,93584.53
2022-09-01T00:21:28.004Z,93583.72
2022-09-01T00:22:24.682Z,93593.38
2022-09-01T00:23:21.382Z,93578.69
2022-09-01T00:24:19.819Z,93586.78
2022-09-01T00:25:18.894Z,93584.75
2022-09-01T00:26:15.679Z,93584.00
2022-09-01T00:27:12.337Z,93571.63
2022-09-01T00:28:09.633Z,93591.28
2022-09-01T00:29:07.174Z,93587.41
2022-09-01T00:30:04.448Z,93592.78
2022-09-01T00:31:01.663Z,93593.16
2022-09-01T00:31:58.499Z,93589.59
2022-09-01T00:32:55.111Z,93589.97
2022-09-01T00:33:51.842Z,93589.25
2022-09-01T00:34:48.532Z,93587.69
2022-09-01T00:35:45.397Z,93585.31
2022-09-01T00:36:42.478Z,93588.75
2022-09-01T00:37:39.129Z,93602.19
2022-09-01T00:38:35.968Z,93603.75
2022-09-01T00:39:32.791Z,93596.75
2022-09-01T00:40:29.559Z,93600.22
2022-09-01T00:41:30.140Z,93600.56
2022-09-01T00:42:27.145Z,93597.53
2022-09-01T00:43:41.891Z,93607.50
2022-09-01T00:44:39.302Z,93602.47
2022-09-01T00:45:36.049Z,93604.03
2022-09-01T00:46:49.543Z,93603.66
2022-09-01T00:47:46.969Z,93605.88
2022-09-01T00:48:43.932Z,93605.50
2022-09-01T00:49:45.089Z,93598.97
2022-09-01T00:50:42.191Z,93602.00
2022-09-01T00:51:42.547Z,93606.22
2022-09-01T00:52:44.962Z,93608.91
2022-09-01T00:53:44.012Z,93609.25
2022-09-01T00:54:45.873Z,93606.94
2022-09-01T00:55:42.568Z,93604.97
2022-09-01T00:56:41.042Z,93605.72
2022-09-01T00:57:44.214Z,93605.38
2022-09-01T00:58:41.451Z,93607.66
2022-09-01T00:59:46.040Z,93611.94
2022-09-01T01:00:44.719Z,93605.03
2022-09-01T01:01:41.488Z,93607.00
2022-09-01T01:02:40.603Z,93607.84
2022-09-01T01:03:39.356Z,93610.44
2022-09-01T01:04:36.088Z,93607.00
2022-09-01T01:05:37.079Z,93602.34
2022-09-01T01:06:33.843Z,93606.88
2022-09-01T01:07:30.877Z,93600.00
2022-09-01T01:08:34.336Z,93597.75
2022-09-01T01:09:35.851Z,93600.50
2022-09-01T01:10:35.970Z,93598.25
2022-09-01T01:11:32.736Z,93598.69
2022-09-01T01:12:30.911Z,93597.53
2022-09-01T01:13:28.840Z,93602.13
2022-09-01T01:14:27.789Z,93594.50
2022-09-01T01:15:24.501Z,93599.50
2022-09-01T01:16:23.032Z,93586.06
2022-09-01T01:17:21.733Z,93591.50
2022-09-01T01:18:22.985Z,93587.69
2022-09-01T01:19:43.016Z,93595.31
2022-09-01T01:20:59.206Z,93579.50
2022-09-01T01:22:15.433Z,93591.44
2022-09-01T01:23:28.892Z,93580.69
2022-09-01T01:24:26.580Z,93587.22
2022-09-01T01:25:24.020Z,93584.94
2022-09-01T01:26:20.864Z,93587.22
2022-09-01T01:27:21.891Z,93591.50
2022-09-01T01:28:26.885Z,93592.94
2022-09-01T01:29:24.182Z,93592.59
2022-09-01T01:30:21.043Z,93598.84
2022-09-01T01:31:23.024Z,93585.81
2022-09-01T01:32:20.732Z,93594.59
2022-09-01T01:33:17.573Z,93591.38
2022-09-01T01:34:17.848Z,93602.06
2022-09-01T01:35:17.457Z,93605.16
2022-09-01T01:36:36.386Z,93596.63
2022-09-01T01:37:36.382Z,93604.44
2022-09-01T01:38:35.401Z,93583.28
2022-09-01T01:39:32.644Z,93590.19
2022-09-01T01:40:30.109Z,93594.75
2022-09-01T01:41:27.023Z,93597.09
2022-09-01T01:42:25.205Z,93601.34
2022-09-01T01:43:24.038Z,93589.88
2022-09-01T01:44:27.964Z,93597.66
2022-09-01T01:45:25.422Z,93603.69
2022-09-01T01:46:22.795Z,93597.19
2022-09-01T01:47:20.492Z,93610.56
2022-09-01T01:48:24.683Z,93609.03
2022-09-01T01:49:25.565Z,93603.25
2022-09-01T01:50:25.277Z,93605.94
2022-09-01T01:51:26.858Z,93612.63
2022-09-01T01:52:26.256Z,93620.66
2022-09-01T01:53:23.833Z,93613.59
2022-09-01T01:54:20.549Z,93623.13
2022-09-01T01:55:19.420Z,93620.56
2022-09-01T01:56:18.526Z,93623.63
2022-09-01T01:57:18.337Z,93627.41
2022-09-01T01:58:15.843Z,93632.78
2022-09-01T01:59:14.901Z,93637.03
2022-09-01T02:00:13.032Z,93624.44
2022-09-01T02:01:11.900Z,93623.78
2022-09-01T02:02:10.491Z,93634.22
2022-09-01T02:03:07.562Z,93620.63
2022-09-01T02:04:05.766Z,93640.56
2022-09-01T02:05:02.563Z,93635.88
2022-09-01T02:06:04.766Z,93634.69
2022-09-01T02:07:01.514Z,93639.16
2022-09-01T02:08:04.052Z,93641.38
2022-09-01T02:09:01.632Z,93634.44
2022-09-01T02:09:58.384Z,93641.28
2022-09-01T02:10:57.884Z,93639.34
2022-09-01T02:11:57.172Z,93638.47
2022-09-01T02:12:54.048Z,93639.66
2022-09-01T02:13:54.470Z,93628.47
2022-09-01T02:14:53.153Z,93602.28
2022-09-01T02:15:53.977Z,93630.50
2022-09-01T02:16:50.778Z,93634.28
2022-09-01T02:17:48.946Z,93626.94
2022-09-01T02:18:49.952Z,93636.63
2022-09-01T02:19:47.525Z,93626.31
2022-09-01T02:20:49.488Z,93630.91
2022-09-01T02:21:55.936Z,93640.19
2022-09-01T02:22:55.460Z,93638.78
2022-09-01T02:24:02.143Z,93622.22
2022-09-01T02:25:01.007Z,93640.59
2022-09-01T02:26:18.165Z,93643.03
2022-09-01T02:27:15.820Z,93623.47
2022-09-01T02:28:16.158Z,93638.91
2022-09-01T02:29:21.210Z,93638.59
2022-09-01T02:30:17.976Z,93619.38
2022-09-01T02:31:14.726Z,93622.03
2022-09-01T02:32:11.785Z,93628.19
2022-09-01T02:33:09.260Z,93632.38
2022-09-01T02:34:10.728Z,93615.41
2022-09-01T02:35:10.128Z,93633.88
2022-09-01T02:36:12.808Z,93630.81
2022-09-01T02:37:09.416Z,93623.59
2022-09-01T02:38:07.025Z,93635.91
2022-09-01T02:39:03.972Z,93617.09
2022-09-01T02:40:00.667Z,93627.84
2022-09-01T02:40:58.517Z,93624.81
2022-09-01T02:41:56.125Z,93622.09
2022-09-01T02:42:55.439Z,93626.75
2022-09-01T02:43:54.275Z,93625.63
2022-09-01T02:44:50.955Z,93628.25
2022-09-01T02:45:52.948Z,93635.91
2022-09-01T02:46:50.583Z,93629.78
2022-09-01T02:47:48.592Z,93622.81
2022-09-01T02:48:46.387Z,93608.19
2022-09-01T02:49:43.134Z,93623.47
2022-09-01T02:50:41.562Z,93622.69
2022-09-01T02:51:38.615Z,93618.38
2022-09-01T02:52:38.208Z,93620.22
2022-09-01T02:53:36.046Z,93614.28
2022-09-01T02:54:33.261Z,93617.69
2022-09-01T02:55:29.889Z,93622.19
2022-09-01T02:56:27.580Z,93620.63
2022-09-01T02:57:24.591Z,93620.63
2022-09-01T02:58:22.894Z,93617.22
2022-09-01T02:59:24.720Z,93616.47
2022-09-01T03:00:22.921Z,93610.00
2022-09-01T03:01:38.064Z,93614.72
2022-09-01T03:02:36.021Z,93618.13
2022-09-01T03:03:35.832Z,93621.22
2022-09-01T03:04:35.514Z,93618.44
2022-09-01T03:05:34.634Z,93618.88
2022-09-01T03:06:34.631Z,93621.16
2022-09-01T03:07:32.063Z,93614.19
2022-09-01T03:08:28.704Z,93621.22
2022-09-01T03:09:25.384Z,93618.16
2022-09-01T03:10:27.173Z,93616.22
2022-09-01T03:11:24.697Z,93610.84
2022-09-01T03:12:21.393Z,93608.50
2022-09-01T03:13:21.994Z,93607.72
2022-09-01T03:14:19.086Z,93603.75
2022-09-01T03:15:15.756Z,93613.88
2022-09-01T03:16:13.000Z,93613.06
2022-09-01T03:17:09.783Z,93609.59
2022-09-01T03:18:08.548Z,93611.88
2022-09-01T03:19:11.153Z,93607.09
2022-09-01T03:20:07.899Z,93607.53
2022-09-01T03:21:06.231Z,93600.97
2022-09-01T03:22:02.971Z,93605.28
2022-09-01T03:23:01.337Z,93598.03
2022-09-01T03:23:59.461Z,93603.69
2022-09-01T03:24:57.709Z,93604.03
2022-09-01T03:25:54.716Z,93594.66
2022-09-01T03:26:51.749Z,93611.28
2022-09-01T03:27:48.384Z,93603.13
2022-09-01T03:28:46.264Z,93608.22
2022-09-01T03:29:42.949Z,93607.69
2022-09-01T03:30:46.041Z,93607.59
2022-09-01T03:31:42.995Z,93604.91
2022-09-01T03:32:39.893Z,93591.09
2022-09-01T03:33:36.921Z,93611.19
2022-09-01T03:34:34.557Z,93601.16
2022-09-01T03:35:32.095Z,93602.97
2022-09-01T03:36:31.039Z,93613.00
2022-09-01T03:37:27.745Z,93615.34
2022-09-01T03:38:25.606Z,93610.31
2022-09-01T03:39:22.384Z,93621.00
2022-09-01T03:40:19.403Z,93612.97
2022-09-01T03:41:18.644Z,93602.09
2022-09-01T03:42:25.975Z,93619.50
2022-09-01T03:43:27.223Z,93618.78
2022-09-01T03:44:35.422Z,93612.38
2022-09-01T03:45:38.513Z,93611.53
2022-09-01T03:46:37.181Z,93612.31
2022-09-01T03:47:33.926Z,93613.09
2022-09-01T03:48:31.757Z,93616.63
2022-09-01T03:49:28.651Z,93618.88
2022-09-01T03:50:25.605Z,93618.47
2022-09-01T03:51:24.058Z,93620.78
2022-09-01T03:52:21.080Z,93620.78
2022-09-01T03:53:20.781Z,93625.38
2022-09-01T03:54:17.850Z,93623.13
2022-09-01T03:55:18.420Z,93614.75
2022-09-01T03:56:15.927Z,93625.09
2022-09-01T03:57:13.889Z,93624.78
2022-09-01T03:58:14.794Z,93618.63
2022-09-01T03:59:17.295Z,93615.84
2022-09-01T04:00:21.060Z,93620.88
2022-09-01T04:01:19.279Z,93617.44
2022-09-01T04:02:15.992Z,93622.41
2022-09-01T04:03:13.920Z,93609.72
2022-09-01T04:04:14.959Z,93615.44
2022-09-01T04:05:11.690Z,93618.88
2022-09-01T04:06:10.195Z,93614.63
2022-09-01T04:07:07.490Z,93604.94
2022-09-01T04:08:07.966Z,93619.91
2022-09-01T04:09:04.762Z,93616.09
2022-09-01T04:10:01.473Z,93611.53
2022-09-01T04:11:02.877Z,93619.19
2022-09-01T04:11:59.841Z,93622.69
2022-09-01T04:12:59.146Z,93617.00
2022-09-01T04:13:55.758Z,93620.47
2022-09-01T04:14:52.367Z,93617.41
2022-09-01T04:15:50.053Z,93612.41
2022-09-01T04:17:05.458Z,93601.72
2022-09-01T04:18:09.743Z,93617.44
2022-09-01T04:19:16.010Z,93617.16
2022-09-01T04:20:13.102Z,93620.94
2022-09-01T04:21:10.577Z,93617.06
2022-09-01T04:22:08.111Z,93617.44
2022-09-01T04:23:10.866Z,93613.19
2022-09-01T04:24:09.088Z,93614.28
2022-09-01T04:25:06.777Z,93612.06
2022-09-01T04:26:10.046Z,93595.53
2022-09-01T04:27:07.681Z,93614.81
2022-09-01T04:28:13.037Z,93603.31
2022-09-01T04:29:11.756Z,93607.97
2022-09-01T04:30:11.833Z,93601.84
2022-09-01T04:31:15.013Z,93609.59
2022-09-01T04:32:15.857Z,93601.16
2022-09-01T04:33:13.163Z,93579.66
2022-09-01T04:34:16.327Z,93609.47
2022-09-01T04:35:17.210Z,93611.59
2022-09-01T04:36:19.665Z,93615.47
2022-09-01T04:37:18.876Z,93621.56
2022-09-01T04:38:15.902Z,93613.88
2022-09-01T04:39:13.464Z,93593.56
2022-09-01T04:40:10.711Z,93595.44
2022-09-01T04:41:09.517Z,93600.06
2022-09-01T04:42:09.080Z,93610.81
2022-09-01T04:43:09.228Z,93612.69
2022-09-01T04:44:07.198Z,93615.78
2022-09-01T04:45:10.029Z,93614.22
2022-09-01T04:46:07.566Z,93620.41
2022-09-01T04:47:07.106Z,93622.75
2022-09-01T04:48:05.535Z,93616.25
2022-09-01T04:49:13.158Z,93621.66
2022-09-01T04:50:14.821Z,93602.41
2022-09-01T04:51:12.758Z,93602.44
2022-09-01T04:52:09.491Z,93624.72
2022-09-01T04:53:06.847Z,93611.28
2022-09-01T04:54:03.748Z,93614.78
2022-09-01T04:55:00.690Z,93619.41
2022-09-01T04:56:04.580Z,93615.97
2022-09-01T04:57:01.249Z,93622.91
2022-09-01T04:58:08.338Z,93622.13
2022-09-01T04:59:08.174Z,93624.84
2022-09-01T05:00:05.387Z,93622.91
2022-09-01T05:01:06.563Z,93619.47
2022-09-01T05:02:03.273Z,93619.88
2022-09-01T05:03:06.161Z,93621.03
2022-09-01T05:04:04.080Z,93614.09
2022-09-01T05:05:03.542Z,93620.25
2022-09-01T05:06:02.567Z,93610.66
2022-09-01T05:07:01.209Z,93619.53
2022-09-01T05:07:58.012Z,93619.88
2022-09-01T05:08:57.879Z,93622.56
2022-09-01T05:09:58.071Z,93626.41
2022-09-01T05:10:57.466Z,93620.69
2022-09-01T05:11:54.111Z,93618.81
2022-09-01T05:12:52.408Z,93618.44
2022-09-01T05:13:49.983Z,93617.69
2022-09-01T05:14:48.623Z,93612.34
2022-09-01T05:15:47.164Z,93612.75
2022-09-01T05:16:45.081Z,93610.44
2022-09-01T05:17:42.051Z,93612.75
2022-09-01T05:18:47.771Z,93614.31
2022-09-01T05:19:47.821Z,93600.91
2022-09-01T05:20:44.609Z,93607.44
2022-09-01T05:21:45.707Z,93605.88
2022-09-01T05:22:42.423Z,93611.28
2022-09-01T05:23:42.640Z,93597.44
2022-09-01T05:24:42.120Z,93607.44
2022-09-01T05:25:42.008Z,93605.91
2022-09-01T05:26:40.525Z,93607.84
2022-09-01T05:27:39.773Z,93607.81
2022-09-01T05:28:36.477Z,93615.53
2022-09-01T05:29:34.328Z,93607.81
2022-09-01T05:30:31.070Z,93607.84
2022-09-01T05:31:29.727Z,93610.91
2022-09-01T05:32:27.573Z,93602.81
2022-09-01T05:33:24.734Z,93617.03
2022-09-01T05:34:29.821Z,93617.81
2022-09-01T05:35:32.403Z,93613.97
2022-09-01T05:36:33.897Z,93617.78
2022-09-01T05:37:30.555Z,93616.66
2022-09-01T05:38:27.189Z,93617.44
2022-09-01T05:39:25.072Z,93611.25
2022-09-01T05:40:22.094Z,93613.53
2022-09-01T05:41:20.408Z,93622.41
2022-09-01T05:42:17.725Z,93617.41
2022-09-01T05:43:14.907Z,93612.03
2022-09-01T05:44:14.179Z,93611.25
2022-09-01T05:45:14.384Z,93610.13
2022-09-01T05:46:11.071Z,93606.66
2022-09-01T05:47:09.711Z,93609.72
2022-09-01T05:48:12.645Z,93610.91
2022-09-01T05:49:14.010Z,93616.66
2022-09-01T05:50:14.621Z,93615.16
2022-09-01T05:51:40.209Z,93615.13
2022-09-01T05:52:34.385Z,93599.31
2022-09-01T05:53:31.062Z,93607.78
2022-09-01T05:54:29.265Z,93610.47
2022-09-01T05:55:27.741Z,93611.97
2022-09-01T05:56:27.228Z,93608.47
2022-09-01T05:57:34.340Z,93611.94
2022-09-01T05:59:22.450Z,93600.31
2022-09-01T05:59:53.899Z,93613.75
2022-09-01T06:00:52.125Z,93614.97
2022-09-01T06:01:50.478Z,93620.84
2022-09-01T06:02:47.428Z,93613.19
2022-09-01T06:03:44.774Z,93601.28
2022-09-01T06:04:42.190Z,93616.25
2022-09-01T06:05:39.860Z,93613.94
2022-09-01T06:07:07.186Z,93613.16
2022-09-01T06:08:07.216Z,93600.81
2022-09-01T06:09:06.966Z,93614.31
2022-09-01T06:10:04.454Z,93607.38
2022-09-01T06:11:01.490Z,93606.19
2022-09-01T06:11:58.098Z,93613.56
2022-09-01T06:12:54.847Z,93607.78
2022-09-01T06:13:56.930Z,93607.78
2022-09-01T06:14:56.676Z,93609.72
2022-09-01T06:15:58.348Z,93605.06
2022-09-01T06:16:55.013Z,93609.69
2022-09-01T06:17:52.509Z,93606.25
2022-09-01T06:18:50.662Z,93611.63
2022-09-01T06:19:58.647Z,93606.97
2022-09-01T06:20:55.809Z,93590.38
2022-09-01T06:21:53.458Z,93604.88
2022-09-01T06:22:52.677Z,93606.75
2022-09-01T06:23:54.146Z,93603.69
2022-09-01T06:24:56.645Z,93596.34
2022-09-01T06:25:59.918Z,93608.22
2022-09-01T06:26:56.656Z,93606.31
2022-09-01T06:27:54.194Z,93606.28
2022-09-01T06:28:55.158Z,93606.34
2022-09-01T06:29:55.329Z,93601.69
2022-09-01T06:30:53.740Z,93607.78
2022-09-01T06:31:52.905Z,93592.50
2022-09-01T06:32:49.793Z,93612.06
2022-09-01T06:33:48.716Z,93601.59
2022-09-01T06:34:47.774Z,93608.06
2022-09-01T06:35:47.217Z,93611.88
2022-09-01T06:36:45.844Z,93617.00
2022-09-01T06:37:44.032Z,93615.59
2022-09-01T06:38:41.318Z,93610.28
2022-09-01T06:39:38.401Z,93604.78
2022-09-01T06:40:39.882Z,93612.97
2022-09-01T06:41:38.911Z,93597.47
2022-09-01T06:42:35.562Z,93610.09
2022-09-01T06:43:33.546Z,93606.22
2022-09-01T06:44:32.137Z,93601.69
2022-09-01T06:45:28.817Z,93602.00
2022-09-01T06:46:28.230Z,93606.63
2022-09-01T06:47:24.881Z,93601.69
2022-09-01T06:48:23.640Z,93604.75
2022-09-01T06:49:24.695Z,93612.91
2022-09-01T06:51:40.073Z,93600.09
2022-09-01T06:53:59.667Z,93596.09
2022-09-01T06:54:57.936Z,93597.78
2022-09-01T06:55:56.312Z,93596.44
2022-09-01T06:56:53.592Z,93601.94
2022-09-01T06:58:09.534Z,93598.72
2022-09-01T06:59:13.006Z,93604.63
2022-09-01T07:00:20.278Z,93597.72
2022-09-01T07:01:19.840Z,93598.88
2022-09-01T07:02:18.711Z,93588.59
2022-09-01T07:03:16.689Z,93601.13
2022-09-01T07:04:18.903Z,93600.28
2022-09-01T07:08:12.394Z,93598.75
2022-09-01T07:09:47.083Z,93603.94
2022-09-01T07:10:27.275Z,93603.13
2022-09-01T07:14:22.054Z,93609.53
2022-09-01T07:16:51.869Z,93603.28
2022-09-01T07:17:52.443Z,93589.09
2022-09-01T07:18:58.371Z,93598.41
2022-09-01T07:20:25.271Z,93592.34
2022-09-01T07:21:40.887Z,93605.59
2022-09-01T07:23:03.227Z,93597.97
2022-09-01T07:24:13.194Z,93598.41
2022-09-01T07:25:12.842Z,93600.81
2022-09-01T07:26:11.828Z,93601.47
2022-09-01T07:27:10.742Z,93581.75
2022-09-01T07:28:08.659Z,93595.72
2022-09-01T07:29:07.203Z,93593.00
2022-09-01T07:30:04.986Z,93603.59
2022-09-01T07:33:44.258Z,93595.50
2022-09-01T07:34:41.377Z,93605.88
2022-09-01T07:36:24.956Z,93602.91
2022-09-01T07:38:03.566Z,93603.81
2022-09-01T07:39:52.166Z,93608.06
2022-09-01T07:43:32.598Z,93595.88
2022-09-01T07:44:30.832Z,93595.38
2022-09-01T07:45:29.046Z,93580.81
2022-09-01T07:46:41.311Z,93598.91
2022-09-01T07:47:54.153Z,93582.50
2022-09-01T07:49:28.882Z,93591.56
2022-09-01T07:51:36.544Z,93590.81
2022-09-01T07:52:43.233Z,93601.03
2022-09-01T07:53:40.089Z,93602.06
2022-09-01T07:54:37.474Z,93607.91
2022-09-01T07:55:34.891Z,93604.69
2022-09-01T07:56:34.192Z,93580.44
2022-09-01T07:57:32.994Z,93612.34
2022-09-01T07:58:33.657Z,93612.16
2022-09-01T07:59:31.303Z,93606.47
2022-09-01T08:00:31.169Z,93613.56
2022-09-01T08:01:28.855Z,93597.44
2022-09-01T08:02:28.077Z,93599.41
2022-09-01T08:03:25.632Z,93601.19
2022-09-01T08:04:23.133Z,93605.78
2022-09-01T08:05:26.362Z,93607.22
2022-09-01T08:06:28.014Z,93599.53
2022-09-01T08:07:24.996Z,93588.91
2022-09-01T08:08:25.001Z,93610.72
2022-09-01T08:09:35.135Z,93588.09
2022-09-01T08:10:36.873Z,93612.00
2022-09-01T08:12:01.027Z,93607.09
2022-09-01T08:12:57.691Z,93614.78
2022-09-01T08:13:59.055Z,93607.06
2022-09-01T08:16:19.533Z,93594.28
2022-09-01T08:17:18.075Z,93606.88
2022-09-01T08:18:47.980Z,93584.75
2022-09-01T08:19:47.100Z,93604.28
2022-09-01T08:20:48.307Z,93604.34
2022-09-01T08:21:45.120Z,93609.22
2022-09-01T08:22:41.819Z,93594.66
2022-09-01T08:23:39.085Z,93604.84
2022-09-01T08:24:35.712Z,93608.34
2022-09-01T08:25:34.383Z,93614.31
2022-09-01T08:26:31.023Z,93613.34
2022-09-01T08:27:27.723Z,93609.78
2022-09-01T08:28:27.465Z,93595.38
2022-09-01T08:29:24.229Z,93606.75
2022-09-01T08:30:20.917Z,93608.84
2022-09-01T08:31:19.334Z,93596.63
2022-09-01T08:32:17.235Z,93596.22
2022-09-01T08:33:14.743Z,93591.91
2022-09-01T08:34:12.668Z,93589.91
2022-09-01T08:35:11.523Z,93597.28
2022-09-01T08:36:09.684Z,93608.44
2022-09-01T08:37:06.941Z,93600.50
2022-09-01T08:38:03.560Z,93597.47
2022-09-01T08:39:00.231Z,93582.22
2022-09-01T08:39:57.030Z,93586.16
2022-09-01T08:40:59.193Z,93587.34
2022-09-01T08:42:08.851Z,93594.84
2022-09-01T08:43:18.826Z,93595.53
2022-09-01T08:45:08.308Z,93597.88
2022-09-01T08:46:19.719Z,93594.44
2022-09-01T08:47:28.740Z,93598.13
2022-09-01T08:49:23.641Z,93595.97
2022-09-01T08:49:54.611Z,93593.00
2022-09-01T08:51:08.467Z,93585.69
2022-09-01T08:52:35.009Z,93596.59
2022-09-01T08:53:41.142Z,93596.63
2022-09-01T08:54:52.180Z,93595.97
2022-09-01T08:55:54.972Z,93577.34
2022-09-01T08:56:56.165Z,93584.84
2022-09-01T08:57:59.127Z,93571.09
2022-09-01T08:58:56.718Z,93585.09
2022-09-01T09:13:16.817Z,93564.84
2022-09-01T09:14:34.879Z,93557.41
2022-09-01T09:15:45.037Z,93553.91
2022-09-01T09:16:45.320Z,93547.88
2022-09-01T09:17:52.221Z,93560.09
2022-09-01T09:18:57.848Z,93529.22
2022-09-01T09:19:54.723Z,93561.72
2022-09-01T09:20:52.572Z,93569.69
2022-09-01T09:21:51.765Z,93562.28
2022-09-01T09:22:49.048Z,93554.41
2022-09-01T09:23:48.662Z,93559.28
2022-09-01T09:25:06.803Z,93548.06
2022-09-01T09:26:03.715Z,93546.75
2022-09-01T09:27:00.520Z,93554.16
2022-09-01T09:28:00.830Z,93550.06
2022-09-01T09:28:57.865Z,93548.59
2022-09-01T09:29:56.744Z,93546.69
2022-09-01T09:31:28.668Z,93546.69
2022-09-01T09:33:19.933Z,93543.44
2022-09-01T09:34:01.754Z,93547.34
2022-09-01T09:35:36.722Z,93545.69
2022-09-01T09:36:36.139Z,93546.03
2022-09-01T09:37:32.853Z,93530.81
2022-09-01T09:38:30.422Z,93539.78
2022-09-01T09:39:27.107Z,93542.94
2022-09-01T09:40:27.185Z,93549.03
2022-09-01T09:41:27.108Z,93534.34
2022-09-01T09:42:33.400Z,93537.03
2022-09-01T09:43:44.543Z,93528.00
2022-09-01T09:44:51.233Z,93543.84
2022-09-01T09:45:48.422Z,93540.91
2022-09-01T09:46:48.852Z,93536.22
2022-09-01T09:47:47.192Z,93518.59
2022-09-01T09:48:43.870Z,93540.66
2022-09-01T09:49:44.214Z,93535.00
2022-09-01T09:50:44.107Z,93537.38
2022-09-01T09:51:44.726Z,93532.94
2022-09-01T09:52:41.549Z,93523.03
2022-09-01T09:53:38.241Z,93524.69
2022-09-01T09:54:37.380Z,93521.28
2022-09-01T09:55:34.278Z,93526.56
2022-09-01T09:56:31.541Z,93526.47
2022-09-01T09:57:31.433Z,93529.34
2022-09-01T09:58:42.904Z,93535.44
2022-09-01T10:00:00.655Z,93537.81
2022-09-01T10:01:07.294Z,93522.06
2022-09-01T10:02:36.098Z,93505.41
2022-09-01T10:03:50.435Z,93532.88
2022-09-01T10:04:47.214Z,93533.44
2022-09-01T10:05:47.933Z,93530.31
2022-09-01T10:06:47.923Z,93526.34
2022-09-01T10:07:44.820Z,93529.59
2022-09-01T10:08:48.008Z,93531.31
2022-09-01T10:09:44.840Z,93529.66
2022-09-01T10:10:56.394Z,93503.41
2022-09-01T10:11:57.488Z,93537.97
2022-09-01T10:12:55.755Z,93509.50
2022-09-01T10:13:54.085Z,93508.50
2022-09-01T10:15:12.406Z,93522.81
2022-09-01T10:16:23.318Z,93500.13
2022-09-01T10:17:28.731Z,93519.50
2022-09-01T10:18:40.615Z,93515.91
2022-09-01T10:19:42.069Z,93521.84
2022-09-01T10:20:41.666Z,93507.47
2022-09-01T10:21:41.875Z,93519.53
2022-09-01T10:22:39.786Z,93525.16
2022-09-01T10:23:38.810Z,93521.13
2022-09-01T10:24:39.097Z,93525.03
2022-09-01T10:25:42.642Z,93513.63
2022-09-01T10:26:41.699Z,93518.53
2022-09-01T10:27:42.189Z,93517.56
2022-09-01T10:28:52.980Z,93516.84
2022-09-01T10:31:20.236Z,93517.00
2022-09-01T10:32:35.099Z,93508.66
2022-09-01T10:33:36.978Z,93507.84
2022-09-01T10:34:37.380Z,93505.38
2022-09-01T10:35:41.451Z,93513.47
2022-09-01T10:36:38.569Z,93513.19
2022-09-01T10:37:35.636Z,93500.72
2022-09-01T10:38:32.428Z,93496.22
2022-09-01T10:39:31.131Z,93503.22
2022-09-01T10:40:31.661Z,93510.84
2022-09-01T10:42:00.165Z,93507.78
2022-09-01T10:43:18.937Z,93488.09
2022-09-01T10:44:21.859Z,93505.59
2022-09-01T10:45:38.203Z,93494.78
2022-09-01T10:46:40.713Z,93504.13
2022-09-01T10:47:40.292Z,93485.00
2022-09-01T10:48:48.415Z,93489.63
2022-09-01T10:49:51.616Z,93493.72
2022-09-01T10:50:53.634Z,93495.06
2022-09-01T10:51:55.113Z,93488.22
2022-09-01T10:52:54.894Z,93491.28
2022-09-01T10:54:01.824Z,93497.41
2022-09-01T10:55:02.993Z,93495.44
2022-09-01T10:56:20.007Z,93498.69
2022-09-01T10:57:49.498Z,93494.03
2022-09-01T10:59:43.295Z,93476.88
2022-09-01T11:02:35.898Z,93490.63
2022-09-01T11:03:41.037Z,93482.78
2022-09-01T11:04:47.256Z,93489.78
2022-09-01T11:06:11.432Z,93487.50
2022-09-01T11:08:00.188Z,93465.22
2022-09-01T11:09:04.568Z,93483.38
2022-09-01T11:10:32.417Z,93480.63
2022-09-01T11:11:47.409Z,93482.28
2022-09-01T11:13:01.644Z,93474.06
2022-09-01T11:13:59.193Z,93463.75
2022-09-01T11:15:23.007Z,93471.38
2022-09-01T11:16:48.119Z,93468.19
2022-09-01T11:17:46.130Z,93467.78
2022-09-01T11:18:43.579Z,93468.03
2022-09-01T11:20:06.824Z,93464.06
2022-09-01T11:21:34.002Z,93473.34
2022-09-01T11:22:33.412Z,93468.94
2022-09-01T11:23:31.487Z,93444.72
2022-09-01T11:24:58.021Z,93463.69
2022-09-01T11:27:48.787Z,93457.50
2022-09-01T11:28:45.738Z,93461.94
2022-09-01T11:29:58.857Z,93457.31
2022-09-01T11:31:08.663Z,93464.78
2022-09-01T11:32:06.330Z,93469.22
2022-09-01T11:33:22.632Z,93462.38
2022-09-01T11:34:23.395Z,93460.28
2022-09-01T11:35:23.237Z,93448.91
2022-09-01T11:36:35.359Z,93449.09
2022-09-01T11:37:33.469Z,93447.31
2022-09-01T11:38:43.671Z,93441.34
2022-09-01T11:39:49.285Z,93458.88
2022-09-01T11:40:55.697Z,93451.22
2022-09-01T11:41:59.674Z,93443.03
2022-09-01T11:43:02.210Z,93451.19
2022-09-01T11:44:02.572Z,93439.91
2022-09-01T11:45:07.411Z,93445.31
2022-09-01T11:46:24.926Z,93440.13
2022-09-01T11:47:46.417Z,93437.13
2022-09-01T11:48:51.934Z,93430.56
2022-09-01T11:50:29.327Z,93421.31
2022-09-01T11:51:26.294Z,93422.22
2022-09-01T11:52:26.086Z,93408.53
2022-09-01T11:53:24.278Z,93415.38
2022-09-01T11:54:21.057Z,93408.75
2022-09-01T11:55:30.130Z,93416.16
2022-09-01T11:56:28.741Z,93411.13
2022-09-01T11:57:25.420Z,93407.31
2022-09-01T11:58:27.872Z,93415.38
2022-09-01T11:59:31.704Z,93417.66
2022-09-01T12:00:32.829Z,93414.78
2022-09-01T12:01:40.305Z,93412.44
2022-09-01T12:02:45.727Z,93412.63
2022-09-01T12:03:43.113Z,93394.81
2022-09-01T12:04:41.160Z,93412.50
2022-09-01T12:05:40.995Z,93413.97
2022-09-01T12:06:37.649Z,93384.47
2022-09-01T12:07:39.516Z,93412.25
2022-09-01T12:08:41.794Z,93414.50
2022-09-01T12:09:48.123Z,93416.59
2022-09-01T12:10:46.979Z,93416.31
2022-09-01T12:11:43.605Z,93422.84
2022-09-01T12:12:40.508Z,93413.88
2022-09-01T12:13:38.548Z,93411.81
2022-09-01T12:15:02.126Z,93408.00
2022-09-01T12:16:18.417Z,93410.66
2022-09-01T12:17:20.538Z,93416.84
2022-09-01T12:18:23.512Z,93415.31
2022-09-01T12:19:25.941Z,93408.28
2022-09-01T12:20:28.881Z,93415.41
2022-09-01T12:21:43.902Z,93408.59
2022-09-01T12:22:43.011Z,93406.63
2022-09-01T12:23:43.426Z,93404.66
2022-09-01T12:24:46.613Z,93407.03
2022-09-01T12:25:44.608Z,93408.97
2022-09-01T12:26:42.171Z,93408.72
2022-09-01T12:27:38.968Z,93406.59
2022-09-01T12:28:38.228Z,93404.84
2022-09-01T12:29:35.415Z,93402.53
2022-09-01T12:30:39.598Z,93381.34
2022-09-01T12:31:36.539Z,93407.72
2022-09-01T12:32:33.578Z,93413.72
2022-09-01T12:33:31.584Z,93407.50
2022-09-01T12:34:28.226Z,93408.63
2022-09-01T12:35:27.231Z,93413.59
2022-09-01T12:36:28.688Z,93408.03
2022-09-01T12:37:27.463Z,93413.13
2022-09-01T12:38:25.832Z,93411.56
2022-09-01T12:39:24.545Z,93413.69
2022-09-01T12:40:25.215Z,93417.47
2022-09-01T12:41:28.959Z,93417.44